sensor_id;sensor_type;location;lat;lon;timestamp;P1;durP1;ratioP1;P2;durP2;ratioP2
74926;SDS011;63488;48.092;-1.640;2023-08-24T00:01:02;4.20;;;2.92;;
74926;SDS011;63488;48.092;-1.640;2023-08-24T00:03:27;5.90;;;2.90;;
74926;SDS011;63488;48.092;-1.640;2023-08-24T00:05:53;4.15;;;3.20;;
74926;SDS011;63488;48.092;-1.640;2023-08-24T00:08:18;6.32;;;2.97;;
74926;SDS011;63488;48.092;-1.640;2023-08-24T00:10:44;4.97;;;3.10;;
74926;SDS011;63488;48.092;-1.640;2023-08-24T00:13:12;5.45;;;3.53;;
74926;SDS011;63488;48.092;-1.640;2023-08-24T00:15:38;6.05;;;2.65;;
74926;SDS011;63488;48.092;-1.640;2023-08-24T00:18:04;5.18;;;3.20;;
74926;SDS011;63488;48.092;-1.640;2023-08-24T00:20:30;5.47;;;2.90;;
74926;SDS011;63488;48.092;-1.640;2023-08-24T00:22:57;6.03;;;3.00;;
74926;SDS011;63488;48.092;-1.640;2023-08-24T00:25:23;7.13;;;3.53;;
74926;SDS011;63488;48.092;-1.640;2023-08-24T00:27:49;7.13;;;3.25;;
74926;SDS011;63488;48.092;-1.640;2023-08-24T00:30:14;6.22;;;3.13;;
74926;SDS011;63488;48.092;-1.640;2023-08-24T00:32:40;6.30;;;3.67;;
74926;SDS011;63488;48.092;-1.640;2023-08-24T00:35:05;7.53;;;3.47;;
74926;SDS011;63488;48.092;-1.640;2023-08-24T00:37:32;5.05;;;3.10;;
74926;SDS011;63488;48.092;-1.640;2023-08-24T00:39:59;4.85;;;3.25;;
74926;SDS011;63488;48.092;-1.640;2023-08-24T00:42:24;4.93;;;3.40;;
74926;SDS011;63488;48.092;-1.640;2023-08-24T00:44:50;6.40;;;3.10;;
74926;SDS011;63488;48.092;-1.640;2023-08-24T00:47:16;6.45;;;3.35;;
74926;SDS011;63488;48.092;-1.640;2023-08-24T00:49:41;5.15;;;3.10;;
74926;SDS011;63488;48.092;-1.640;2023-08-24T00:52:07;7.35;;;3.75;;
74926;SDS011;63488;48.092;-1.640;2023-08-24T00:54:33;6.70;;;3.38;;
74926;SDS011;63488;48.092;-1.640;2023-08-24T00:56:58;6.05;;;3.20;;
74926;SDS011;63488;48.092;-1.640;2023-08-24T00:59:24;5.53;;;3.03;;
74926;SDS011;63488;48.092;-1.640;2023-08-24T01:01:49;5.55;;;3.08;;
74926;SDS011;63488;48.092;-1.640;2023-08-24T01:04:16;6.65;;;3.20;;
74926;SDS011;63488;48.092;-1.640;2023-08-24T01:06:41;5.43;;;3.05;;
74926;SDS011;63488;48.092;-1.640;2023-08-24T01:09:06;5.90;;;3.70;;
74926;SDS011;63488;48.092;-1.640;2023-08-24T01:16:39;8.70;;;3.30;;
74926;SDS011;63488;48.092;-1.640;2023-08-24T01:19:06;4.78;;;2.92;;
74926;SDS011;63488;48.092;-1.640;2023-08-24T01:21:32;8.55;;;3.17;;
74926;SDS011;63488;48.092;-1.640;2023-08-24T01:24:02;6.05;;;3.20;;
74926;SDS011;63488;48.092;-1.640;2023-08-24T01:26:28;6.53;;;3.38;;
74926;SDS011;63488;48.092;-1.640;2023-08-24T01:28:54;6.80;;;3.40;;
74926;SDS011;63488;48.092;-1.640;2023-08-24T01:31:19;4.82;;;2.95;;
74926;SDS011;63488;48.092;-1.640;2023-08-24T01:33:44;3.90;;;3.38;;
74926;SDS011;63488;48.092;-1.640;2023-08-24T01:36:11;4.32;;;2.90;;
74926;SDS011;63488;48.092;-1.640;2023-08-24T01:38:37;6.82;;;3.33;;
74926;SDS011;63488;48.092;-1.640;2023-08-24T01:41:12;6.63;;;3.35;;
74926;SDS011;63488;48.092;-1.640;2023-08-24T01:43:38;4.97;;;3.33;;
74926;SDS011;63488;48.092;-1.640;2023-08-24T01:46:05;5.65;;;3.35;;
74926;SDS011;63488;48.092;-1.640;2023-08-24T01:48:30;5.82;;;3.58;;
74926;SDS011;63488;48.092;-1.640;2023-08-24T01:50:59;6.80;;;3.60;;
74926;SDS011;63488;48.092;-1.640;2023-08-24T01:53:26;7.57;;;3.15;;
74926;SDS011;63488;48.092;-1.640;2023-08-24T01:55:52;4.38;;;3.20;;
74926;SDS011;63488;48.092;-1.640;2023-08-24T01:58:18;4.75;;;3.28;;
74926;SDS011;63488;48.092;-1.640;2023-08-24T02:00:43;5.95;;;3.50;;
74926;SDS011;63488;48.092;-1.640;2023-08-24T02:03:09;4.63;;;2.85;;
74926;SDS011;63488;48.092;-1.640;2023-08-24T02:05:34;6.35;;;3.03;;
74926;SDS011;63488;48.092;-1.640;2023-08-24T02:08:00;6.65;;;3.42;;
74926;SDS011;63488;48.092;-1.640;2023-08-24T02:10:25;5.70;;;3.10;;
74926;SDS011;63488;48.092;-1.640;2023-08-24T02:12:51;4.45;;;2.83;;
74926;SDS011;63488;48.092;-1.640;2023-08-24T02:15:17;7.05;;;3.20;;
74926;SDS011;63488;48.092;-1.640;2023-08-24T02:17:42;5.28;;;3.25;;
74926;SDS011;63488;48.092;-1.640;2023-08-24T02:20:08;9.45;;;3.45;;
74926;SDS011;63488;48.092;-1.640;2023-08-24T02:22:36;6.53;;;3.30;;
74926;SDS011;63488;48.092;-1.640;2023-08-24T02:25:02;5.90;;;3.53;;
74926;SDS011;63488;48.092;-1.640;2023-08-24T02:27:29;8.75;;;3.58;;
74926;SDS011;63488;48.092;-1.640;2023-08-24T02:29:55;9.13;;;3.00;;
74926;SDS011;63488;48.092;-1.640;2023-08-24T02:32:20;6.40;;;3.20;;
74926;SDS011;63488;48.092;-1.640;2023-08-24T02:34:45;6.18;;;2.90;;
74926;SDS011;63488;48.092;-1.640;2023-08-24T02:37:11;4.72;;;3.08;;
74926;SDS011;63488;48.092;-1.640;2023-08-24T02:39:36;8.63;;;2.97;;
74926;SDS011;63488;48.092;-1.640;2023-08-24T02:42:01;4.10;;;2.88;;
74926;SDS011;63488;48.092;-1.640;2023-08-24T02:44:27;5.88;;;3.00;;
74926;SDS011;63488;48.092;-1.640;2023-08-24T02:46:53;7.15;;;3.17;;
74926;SDS011;63488;48.092;-1.640;2023-08-24T02:49:19;4.68;;;2.83;;
74926;SDS011;63488;48.092;-1.640;2023-08-24T02:51:44;3.55;;;2.92;;
74926;SDS011;63488;48.092;-1.640;2023-08-24T02:54:09;5.93;;;3.25;;
74926;SDS011;63488;48.092;-1.640;2023-08-24T02:56:35;5.47;;;3.08;;
74926;SDS011;63488;48.092;-1.640;2023-08-24T02:59:00;4.55;;;2.90;;
74926;SDS011;63488;48.092;-1.640;2023-08-24T03:01:25;11.30;;;2.83;;
74926;SDS011;63488;48.092;-1.640;2023-08-24T03:03:51;4.72;;;2.90;;
74926;SDS011;63488;48.092;-1.640;2023-08-24T03:06:17;7.20;;;2.80;;
74926;SDS011;63488;48.092;-1.640;2023-08-24T03:08:42;4.75;;;3.25;;
74926;SDS011;63488;48.092;-1.640;2023-08-24T03:11:07;7.07;;;3.08;;
74926;SDS011;63488;48.092;-1.640;2023-08-24T03:13:35;4.75;;;2.95;;
74926;SDS011;63488;48.092;-1.640;2023-08-24T03:16:04;4.40;;;3.13;;
74926;SDS011;63488;48.092;-1.640;2023-08-24T03:18:30;4.88;;;3.17;;
74926;SDS011;63488;48.092;-1.640;2023-08-24T03:20:55;9.10;;;3.75;;
74926;SDS011;63488;48.092;-1.640;2023-08-24T03:23:20;6.22;;;2.90;;
74926;SDS011;63488;48.092;-1.640;2023-08-24T03:25:46;6.15;;;3.00;;
74926;SDS011;63488;48.092;-1.640;2023-08-24T03:28:11;8.10;;;3.20;;
74926;SDS011;63488;48.092;-1.640;2023-08-24T03:30:37;7.63;;;3.17;;
74926;SDS011;63488;48.092;-1.640;2023-08-24T03:33:03;7.00;;;3.53;;
74926;SDS011;63488;48.092;-1.640;2023-08-24T03:35:30;8.18;;;3.15;;
74926;SDS011;63488;48.092;-1.640;2023-08-24T03:37:55;7.40;;;3.10;;
74926;SDS011;63488;48.092;-1.640;2023-08-24T03:40:21;7.43;;;3.28;;
74926;SDS011;63488;48.092;-1.640;2023-08-24T03:42:47;9.88;;;3.30;;
74926;SDS011;63488;48.092;-1.640;2023-08-24T03:45:12;7.68;;;3.03;;
74926;SDS011;63488;48.092;-1.640;2023-08-24T03:47:37;5.80;;;3.22;;
74926;SDS011;63488;48.092;-1.640;2023-08-24T03:50:03;7.97;;;3.38;;
74926;SDS011;63488;48.092;-1.640;2023-08-24T03:52:28;6.82;;;2.95;;
74926;SDS011;63488;48.092;-1.640;2023-08-24T03:54:53;9.48;;;2.92;;
74926;SDS011;63488;48.092;-1.640;2023-08-24T03:57:19;5.25;;;2.95;;
74926;SDS011;63488;48.092;-1.640;2023-08-24T03:59:44;9.02;;;3.22;;
74926;SDS011;63488;48.092;-1.640;2023-08-24T04:02:10;5.63;;;2.65;;
74926;SDS011;63488;48.092;-1.640;2023-08-24T04:04:35;5.43;;;2.42;;
74926;SDS011;63488;48.092;-1.640;2023-08-24T04:07:00;10.13;;;3.47;;
74926;SDS011;63488;48.092;-1.640;2023-08-24T04:09:27;5.78;;;3.20;;
74926;SDS011;63488;48.092;-1.640;2023-08-24T04:11:52;5.72;;;2.80;;
74926;SDS011;63488;48.092;-1.640;2023-08-24T04:14:18;5.00;;;3.08;;
74926;SDS011;63488;48.092;-1.640;2023-08-24T04:16:43;8.75;;;3.00;;
74926;SDS011;63488;48.092;-1.640;2023-08-24T04:19:08;9.02;;;2.55;;
74926;SDS011;63488;48.092;-1.640;2023-08-24T04:21:34;7.97;;;3.28;;
74926;SDS011;63488;48.092;-1.640;2023-08-24T04:24:00;4.70;;;2.70;;
74926;SDS011;63488;48.092;-1.640;2023-08-24T04:26:25;5.78;;;2.60;;
74926;SDS011;63488;48.092;-1.640;2023-08-24T04:28:50;8.13;;;3.13;;
74926;SDS011;63488;48.092;-1.640;2023-08-24T04:31:16;7.55;;;2.85;;
74926;SDS011;63488;48.092;-1.640;2023-08-24T04:33:41;7.90;;;2.80;;
74926;SDS011;63488;48.092;-1.640;2023-08-24T04:36:07;6.78;;;2.97;;
74926;SDS011;63488;48.092;-1.640;2023-08-24T04:38:32;7.95;;;2.97;;
74926;SDS011;63488;48.092;-1.640;2023-08-24T04:40:58;5.93;;;3.30;;
74926;SDS011;63488;48.092;-1.640;2023-08-24T04:43:23;8.98;;;2.97;;
74926;SDS011;63488;48.092;-1.640;2023-08-24T04:45:49;4.90;;;2.60;;
74926;SDS011;63488;48.092;-1.640;2023-08-24T04:48:21;5.65;;;2.53;;
74926;SDS011;63488;48.092;-1.640;2023-08-24T04:50:47;8.57;;;3.20;;
74926;SDS011;63488;48.092;-1.640;2023-08-24T04:53:14;6.50;;;3.05;;
74926;SDS011;63488;48.092;-1.640;2023-08-24T04:55:40;7.13;;;2.67;;
74926;SDS011;63488;48.092;-1.640;2023-08-24T04:58:07;7.38;;;3.30;;
74926;SDS011;63488;48.092;-1.640;2023-08-24T05:00:32;8.48;;;2.75;;
74926;SDS011;63488;48.092;-1.640;2023-08-24T05:02:58;8.15;;;3.00;;
74926;SDS011;63488;48.092;-1.640;2023-08-24T05:05:23;7.05;;;2.55;;
74926;SDS011;63488;48.092;-1.640;2023-08-24T05:07:49;5.43;;;2.47;;
74926;SDS011;63488;48.092;-1.640;2023-08-24T05:10:14;6.70;;;2.40;;
74926;SDS011;63488;48.092;-1.640;2023-08-24T05:12:39;6.68;;;2.92;;
74926;SDS011;63488;48.092;-1.640;2023-08-24T05:15:05;6.60;;;2.78;;
74926;SDS011;63488;48.092;-1.640;2023-08-24T05:17:31;6.45;;;2.80;;
74926;SDS011;63488;48.092;-1.640;2023-08-24T05:19:57;4.95;;;2.50;;
74926;SDS011;63488;48.092;-1.640;2023-08-24T05:22:22;4.88;;;2.58;;
74926;SDS011;63488;48.092;-1.640;2023-08-24T05:24:48;7.63;;;2.88;;
74926;SDS011;63488;48.092;-1.640;2023-08-24T05:27:13;6.57;;;2.50;;
74926;SDS011;63488;48.092;-1.640;2023-08-24T05:29:38;8.65;;;2.40;;
74926;SDS011;63488;48.092;-1.640;2023-08-24T05:32:04;4.20;;;2.72;;
74926;SDS011;63488;48.092;-1.640;2023-08-24T05:34:29;5.80;;;2.42;;
74926;SDS011;63488;48.092;-1.640;2023-08-24T05:36:54;6.45;;;2.58;;
74926;SDS011;63488;48.092;-1.640;2023-08-24T05:39:20;4.88;;;2.53;;
74926;SDS011;63488;48.092;-1.640;2023-08-24T05:41:45;5.78;;;2.50;;
74926;SDS011;63488;48.092;-1.640;2023-08-24T05:44:10;4.20;;;2.60;;
74926;SDS011;63488;48.092;-1.640;2023-08-24T05:46:36;4.88;;;2.53;;
74926;SDS011;63488;48.092;-1.640;2023-08-24T05:49:01;5.60;;;2.38;;
74926;SDS011;63488;48.092;-1.640;2023-08-24T05:51:27;4.88;;;2.05;;
74926;SDS011;63488;48.092;-1.640;2023-08-24T05:53:53;5.72;;;2.30;;
74926;SDS011;63488;48.092;-1.640;2023-08-24T05:56:23;5.82;;;2.22;;
74926;SDS011;63488;48.092;-1.640;2023-08-24T05:58:49;5.18;;;2.33;;
74926;SDS011;63488;48.092;-1.640;2023-08-24T06:01:14;6.22;;;2.25;;
74926;SDS011;63488;48.092;-1.640;2023-08-24T06:03:39;5.35;;;2.33;;
74926;SDS011;63488;48.092;-1.640;2023-08-24T06:06:05;4.57;;;2.35;;
74926;SDS011;63488;48.092;-1.640;2023-08-24T06:08:31;4.15;;;2.50;;
74926;SDS011;63488;48.092;-1.640;2023-08-24T06:10:56;8.75;;;2.55;;
74926;SDS011;63488;48.092;-1.640;2023-08-24T06:13:22;7.60;;;2.75;;
74926;SDS011;63488;48.092;-1.640;2023-08-24T06:15:47;7.97;;;2.65;;
74926;SDS011;63488;48.092;-1.640;2023-08-24T06:18:13;5.35;;;2.50;;
74926;SDS011;63488;48.092;-1.640;2023-08-24T06:20:38;8.82;;;2.72;;
74926;SDS011;63488;48.092;-1.640;2023-08-24T06:23:04;4.85;;;2.40;;
74926;SDS011;63488;48.092;-1.640;2023-08-24T06:25:30;10.63;;;2.83;;
74926;SDS011;63488;48.092;-1.640;2023-08-24T06:27:56;6.13;;;2.83;;
74926;SDS011;63488;48.092;-1.640;2023-08-24T06:30:21;5.60;;;2.47;;
74926;SDS011;63488;48.092;-1.640;2023-08-24T06:32:47;5.47;;;2.97;;
74926;SDS011;63488;48.092;-1.640;2023-08-24T06:35:12;6.10;;;2.50;;
74926;SDS011;63488;48.092;-1.640;2023-08-24T06:37:40;3.83;;;2.42;;
74926;SDS011;63488;48.092;-1.640;2023-08-24T06:40:06;9.40;;;2.70;;
74926;SDS011;63488;48.092;-1.640;2023-08-24T06:42:31;3.53;;;2.25;;
74926;SDS011;63488;48.092;-1.640;2023-08-24T06:44:57;6.75;;;2.70;;
74926;SDS011;63488;48.092;-1.640;2023-08-24T06:47:22;8.07;;;3.15;;
74926;SDS011;63488;48.092;-1.640;2023-08-24T06:49:48;9.77;;;2.90;;
74926;SDS011;63488;48.092;-1.640;2023-08-24T06:52:13;4.78;;;2.90;;
74926;SDS011;63488;48.092;-1.640;2023-08-24T06:54:38;5.15;;;2.40;;
74926;SDS011;63488;48.092;-1.640;2023-08-24T06:57:04;6.80;;;2.60;;
74926;SDS011;63488;48.092;-1.640;2023-08-24T06:59:29;4.25;;;2.80;;
74926;SDS011;63488;48.092;-1.640;2023-08-24T07:01:55;7.10;;;2.65;;
74926;SDS011;63488;48.092;-1.640;2023-08-24T07:04:20;8.55;;;3.10;;
74926;SDS011;63488;48.092;-1.640;2023-08-24T07:06:45;7.18;;;2.88;;
74926;SDS011;63488;48.092;-1.640;2023-08-24T07:09:11;5.82;;;3.10;;
74926;SDS011;63488;48.092;-1.640;2023-08-24T07:11:36;7.45;;;2.80;;
74926;SDS011;63488;48.092;-1.640;2023-08-24T07:14:02;9.43;;;3.08;;
74926;SDS011;63488;48.092;-1.640;2023-08-24T07:16:27;9.23;;;3.50;;
74926;SDS011;63488;48.092;-1.640;2023-08-24T07:18:53;4.97;;;3.47;;
74926;SDS011;63488;48.092;-1.640;2023-08-24T07:21:18;7.85;;;3.28;;
74926;SDS011;63488;48.092;-1.640;2023-08-24T07:23:43;7.40;;;3.78;;
74926;SDS011;63488;48.092;-1.640;2023-08-24T07:26:09;8.07;;;3.35;;
74926;SDS011;63488;48.092;-1.640;2023-08-24T07:28:34;5.38;;;3.28;;
74926;SDS011;63488;48.092;-1.640;2023-08-24T07:31:06;7.47;;;3.30;;
74926;SDS011;63488;48.092;-1.640;2023-08-24T07:33:31;8.13;;;3.53;;
74926;SDS011;63488;48.092;-1.640;2023-08-24T07:35:57;4.03;;;2.92;;
74926;SDS011;63488;48.092;-1.640;2023-08-24T07:38:22;9.65;;;3.65;;
74926;SDS011;63488;48.092;-1.640;2023-08-24T07:40:48;11.25;;;3.83;;
74926;SDS011;63488;48.092;-1.640;2023-08-24T07:43:13;7.32;;;3.42;;
74926;SDS011;63488;48.092;-1.640;2023-08-24T07:45:38;8.65;;;3.40;;
74926;SDS011;63488;48.092;-1.640;2023-08-24T07:48:05;9.52;;;3.17;;
74926;SDS011;63488;48.092;-1.640;2023-08-24T07:50:31;7.72;;;3.55;;
74926;SDS011;63488;48.092;-1.640;2023-08-24T07:52:57;6.75;;;2.85;;
74926;SDS011;63488;48.092;-1.640;2023-08-24T07:55:22;6.78;;;2.80;;
74926;SDS011;63488;48.092;-1.640;2023-08-24T07:57:48;7.20;;;3.25;;
74926;SDS011;63488;48.092;-1.640;2023-08-24T08:00:14;11.63;;;3.50;;
74926;SDS011;63488;48.092;-1.640;2023-08-24T08:02:39;9.90;;;3.20;;
74926;SDS011;63488;48.092;-1.640;2023-08-24T08:05:05;10.48;;;3.50;;
74926;SDS011;63488;48.092;-1.640;2023-08-24T08:07:35;5.38;;;3.53;;
74926;SDS011;63488;48.092;-1.640;2023-08-24T08:10:00;7.82;;;3.47;;
74926;SDS011;63488;48.092;-1.640;2023-08-24T08:12:26;6.72;;;3.30;;
74926;SDS011;63488;48.092;-1.640;2023-08-24T08:14:51;5.63;;;3.80;;
74926;SDS011;63488;48.092;-1.640;2023-08-24T08:17:16;5.80;;;3.45;;
74926;SDS011;63488;48.092;-1.640;2023-08-24T08:19:42;9.13;;;4.03;;
74926;SDS011;63488;48.092;-1.640;2023-08-24T08:22:07;5.13;;;3.58;;
74926;SDS011;63488;48.092;-1.640;2023-08-24T08:24:33;7.95;;;3.55;;
74926;SDS011;63488;48.092;-1.640;2023-08-24T08:26:58;7.72;;;4.10;;
74926;SDS011;63488;48.092;-1.640;2023-08-24T08:29:23;7.22;;;3.58;;
74926;SDS011;63488;48.092;-1.640;2023-08-24T08:31:49;7.32;;;3.58;;
74926;SDS011;63488;48.092;-1.640;2023-08-24T08:34:14;7.05;;;3.20;;
74926;SDS011;63488;48.092;-1.640;2023-08-24T08:36:40;8.13;;;3.47;;
74926;SDS011;63488;48.092;-1.640;2023-08-24T08:39:06;7.80;;;3.33;;
74926;SDS011;63488;48.092;-1.640;2023-08-24T08:41:33;10.27;;;3.70;;
74926;SDS011;63488;48.092;-1.640;2023-08-24T08:44:03;5.13;;;3.10;;
74926;SDS011;63488;48.092;-1.640;2023-08-24T08:46:29;6.00;;;3.42;;
74926;SDS011;63488;48.092;-1.640;2023-08-24T08:48:54;6.03;;;3.63;;
74926;SDS011;63488;48.092;-1.640;2023-08-24T08:51:20;8.32;;;3.70;;
74926;SDS011;63488;48.092;-1.640;2023-08-24T08:53:45;6.97;;;3.47;;
74926;SDS011;63488;48.092;-1.640;2023-08-24T08:56:11;9.85;;;3.80;;
74926;SDS011;63488;48.092;-1.640;2023-08-24T08:58:36;8.65;;;3.78;;
74926;SDS011;63488;48.092;-1.640;2023-08-24T09:01:02;5.95;;;3.40;;
74926;SDS011;63488;48.092;-1.640;2023-08-24T09:03:29;6.60;;;3.55;;
74926;SDS011;63488;48.092;-1.640;2023-08-24T09:05:56;7.13;;;3.50;;
74926;SDS011;63488;48.092;-1.640;2023-08-24T09:08:21;5.15;;;3.20;;
74926;SDS011;63488;48.092;-1.640;2023-08-24T09:10:47;9.05;;;3.60;;
74926;SDS011;63488;48.092;-1.640;2023-08-24T09:13:13;7.75;;;3.17;;
74926;SDS011;63488;48.092;-1.640;2023-08-24T09:15:39;7.85;;;3.40;;
74926;SDS011;63488;48.092;-1.640;2023-08-24T09:18:04;11.25;;;3.38;;
74926;SDS011;63488;48.092;-1.640;2023-08-24T09:20:30;7.78;;;3.58;;
74926;SDS011;63488;48.092;-1.640;2023-08-24T09:22:55;7.18;;;3.50;;
74926;SDS011;63488;48.092;-1.640;2023-08-24T09:25:22;6.65;;;3.80;;
74926;SDS011;63488;48.092;-1.640;2023-08-24T09:27:55;5.78;;;3.90;;
74926;SDS011;63488;48.092;-1.640;2023-08-24T09:30:21;6.80;;;3.65;;
74926;SDS011;63488;48.092;-1.640;2023-08-24T09:32:46;5.93;;;3.40;;
74926;SDS011;63488;48.092;-1.640;2023-08-24T09:35:11;9.45;;;4.00;;
74926;SDS011;63488;48.092;-1.640;2023-08-24T09:37:38;8.27;;;3.55;;
74926;SDS011;63488;48.092;-1.640;2023-08-24T09:40:04;6.28;;;3.50;;
74926;SDS011;63488;48.092;-1.640;2023-08-24T09:42:39;10.68;;;3.95;;
74926;SDS011;63488;48.092;-1.640;2023-08-24T09:45:05;9.50;;;3.80;;
74926;SDS011;63488;48.092;-1.640;2023-08-24T09:47:31;7.93;;;3.95;;
74926;SDS011;63488;48.092;-1.640;2023-08-24T09:49:56;7.03;;;3.65;;
74926;SDS011;63488;48.092;-1.640;2023-08-24T09:52:21;8.55;;;3.90;;
74926;SDS011;63488;48.092;-1.640;2023-08-24T09:54:48;5.40;;;3.63;;
74926;SDS011;63488;48.092;-1.640;2023-08-24T09:57:15;9.05;;;3.80;;
74926;SDS011;63488;48.092;-1.640;2023-08-24T09:59:41;6.63;;;4.10;;
74926;SDS011;63488;48.092;-1.640;2023-08-24T10:02:11;10.10;;;4.63;;
74926;SDS011;63488;48.092;-1.640;2023-08-24T10:04:39;5.75;;;4.40;;
74926;SDS011;63488;48.092;-1.640;2023-08-24T10:07:10;8.35;;;4.38;;
74926;SDS011;63488;48.092;-1.640;2023-08-24T10:09:44;7.93;;;3.88;;
74926;SDS011;63488;48.092;-1.640;2023-08-24T10:12:10;7.85;;;4.18;;
74926;SDS011;63488;48.092;-1.640;2023-08-24T10:17:37;7.90;;;4.00;;
74926;SDS011;63488;48.092;-1.640;2023-08-24T10:20:03;7.45;;;3.88;;
74926;SDS011;63488;48.092;-1.640;2023-08-24T10:22:31;7.97;;;4.00;;
74926;SDS011;63488;48.092;-1.640;2023-08-24T10:24:59;5.57;;;3.97;;
74926;SDS011;63488;48.092;-1.640;2023-08-24T10:27:25;6.65;;;4.30;;
74926;SDS011;63488;48.092;-1.640;2023-08-24T10:29:51;7.25;;;4.22;;
74926;SDS011;63488;48.092;-1.640;2023-08-24T10:32:17;10.52;;;4.25;;
74926;SDS011;63488;48.092;-1.640;2023-08-24T10:34:46;5.30;;;4.18;;
74926;SDS011;63488;48.092;-1.640;2023-08-24T10:37:12;10.95;;;4.05;;
74926;SDS011;63488;48.092;-1.640;2023-08-24T10:39:38;6.65;;;4.47;;
74926;SDS011;63488;48.092;-1.640;2023-08-24T10:42:10;7.07;;;4.40;;
74926;SDS011;63488;48.092;-1.640;2023-08-24T10:44:36;8.10;;;4.13;;
74926;SDS011;63488;48.092;-1.640;2023-08-24T10:47:05;6.38;;;3.78;;
74926;SDS011;63488;48.092;-1.640;2023-08-24T10:49:31;8.53;;;4.27;;
74926;SDS011;63488;48.092;-1.640;2023-08-24T10:51:57;6.35;;;3.90;;
74926;SDS011;63488;48.092;-1.640;2023-08-24T10:54:31;9.88;;;4.03;;
74926;SDS011;63488;48.092;-1.640;2023-08-24T10:56:57;5.72;;;3.88;;
74926;SDS011;63488;48.092;-1.640;2023-08-24T10:59:24;6.75;;;3.63;;
74926;SDS011;63488;48.092;-1.640;2023-08-24T11:04:18;7.95;;;4.10;;
74926;SDS011;63488;48.092;-1.640;2023-08-24T11:06:56;6.55;;;3.83;;
74926;SDS011;63488;48.092;-1.640;2023-08-24T11:09:24;6.10;;;3.72;;
74926;SDS011;63488;48.092;-1.640;2023-08-24T11:12:02;4.53;;;3.60;;
74926;SDS011;63488;48.092;-1.640;2023-08-24T11:14:30;7.47;;;3.67;;
74926;SDS011;63488;48.092;-1.640;2023-08-24T11:17:00;6.72;;;3.45;;
74926;SDS011;63488;48.092;-1.640;2023-08-24T11:19:25;6.90;;;3.05;;
74926;SDS011;63488;48.092;-1.640;2023-08-24T11:21:51;5.03;;;3.08;;
74926;SDS011;63488;48.092;-1.640;2023-08-24T11:24:16;4.88;;;2.97;;
74926;SDS011;63488;48.092;-1.640;2023-08-24T11:26:45;6.53;;;3.30;;
74926;SDS011;63488;48.092;-1.640;2023-08-24T11:29:11;8.68;;;3.88;;
74926;SDS011;63488;48.092;-1.640;2023-08-24T11:31:36;5.25;;;2.92;;
74926;SDS011;63488;48.092;-1.640;2023-08-24T11:34:02;4.85;;;2.88;;
74926;SDS011;63488;48.092;-1.640;2023-08-24T11:36:28;5.13;;;3.50;;
74926;SDS011;63488;48.092;-1.640;2023-08-24T11:38:55;4.47;;;3.05;;
74926;SDS011;63488;48.092;-1.640;2023-08-24T11:41:21;5.10;;;3.17;;
74926;SDS011;63488;48.092;-1.640;2023-08-24T11:43:47;7.28;;;3.50;;
74926;SDS011;63488;48.092;-1.640;2023-08-24T11:46:13;4.88;;;3.05;;
74926;SDS011;63488;48.092;-1.640;2023-08-24T11:48:40;6.18;;;2.80;;
74926;SDS011;63488;48.092;-1.640;2023-08-24T11:51:09;5.88;;;2.83;;
74926;SDS011;63488;48.092;-1.640;2023-08-24T11:53:45;6.70;;;3.03;;
74926;SDS011;63488;48.092;-1.640;2023-08-24T11:56:11;4.53;;;3.03;;
74926;SDS011;63488;48.092;-1.640;2023-08-24T11:58:40;7.35;;;3.15;;
74926;SDS011;63488;48.092;-1.640;2023-08-24T12:01:06;5.40;;;3.17;;
74926;SDS011;63488;48.092;-1.640;2023-08-24T12:03:31;7.68;;;3.63;;
74926;SDS011;63488;48.092;-1.640;2023-08-24T12:06:01;5.50;;;2.97;;
74926;SDS011;63488;48.092;-1.640;2023-08-24T12:10:53;4.67;;;2.57;;
74926;SDS011;63488;48.092;-1.640;2023-08-24T12:13:19;6.22;;;3.17;;
74926;SDS011;63488;48.092;-1.640;2023-08-24T12:15:45;6.97;;;3.30;;
74926;SDS011;63488;48.092;-1.640;2023-08-24T12:18:12;6.20;;;2.80;;
74926;SDS011;63488;48.092;-1.640;2023-08-24T12:20:39;6.57;;;3.33;;
74926;SDS011;63488;48.092;-1.640;2023-08-24T12:23:05;6.18;;;3.10;;
74926;SDS011;63488;48.092;-1.640;2023-08-24T12:25:30;5.05;;;2.65;;
74926;SDS011;63488;48.092;-1.640;2023-08-24T12:28:09;5.00;;;2.80;;
74926;SDS011;63488;48.092;-1.640;2023-08-24T12:30:48;3.97;;;2.85;;
74926;SDS011;63488;48.092;-1.640;2023-08-24T12:35:48;4.38;;;2.72;;
74926;SDS011;63488;48.092;-1.640;2023-08-24T12:38:13;4.28;;;2.65;;
74926;SDS011;63488;48.092;-1.640;2023-08-24T12:40:39;5.57;;;2.90;;
74926;SDS011;63488;48.092;-1.640;2023-08-24T12:43:04;5.15;;;2.70;;
74926;SDS011;63488;48.092;-1.640;2023-08-24T12:45:29;4.47;;;2.97;;
74926;SDS011;63488;48.092;-1.640;2023-08-24T12:47:55;6.20;;;2.92;;
74926;SDS011;63488;48.092;-1.640;2023-08-24T12:50:20;4.93;;;2.75;;
74926;SDS011;63488;48.092;-1.640;2023-08-24T12:52:46;6.18;;;2.92;;
74926;SDS011;63488;48.092;-1.640;2023-08-24T12:55:11;5.03;;;2.65;;
74926;SDS011;63488;48.092;-1.640;2023-08-24T12:57:36;4.05;;;2.58;;
74926;SDS011;63488;48.092;-1.640;2023-08-24T13:00:02;6.63;;;2.88;;
74926;SDS011;63488;48.092;-1.640;2023-08-24T13:02:31;5.55;;;2.72;;
74926;SDS011;63488;48.092;-1.640;2023-08-24T13:04:56;3.28;;;2.70;;
74926;SDS011;63488;48.092;-1.640;2023-08-24T13:07:26;4.95;;;3.03;;
74926;SDS011;63488;48.092;-1.640;2023-08-24T13:09:51;5.75;;;2.88;;
74926;SDS011;63488;48.092;-1.640;2023-08-24T13:12:17;3.33;;;2.60;;
74926;SDS011;63488;48.092;-1.640;2023-08-24T13:14:42;4.68;;;2.60;;
74926;SDS011;63488;48.092;-1.640;2023-08-24T13:17:07;5.60;;;2.38;;
74926;SDS011;63488;48.092;-1.640;2023-08-24T13:19:33;4.82;;;2.70;;
74926;SDS011;63488;48.092;-1.640;2023-08-24T13:21:58;5.45;;;2.75;;
74926;SDS011;63488;48.092;-1.640;2023-08-24T13:24:23;3.90;;;2.90;;
74926;SDS011;63488;48.092;-1.640;2023-08-24T13:26:49;4.03;;;2.55;;
74926;SDS011;63488;48.092;-1.640;2023-08-24T13:29:14;4.90;;;2.83;;
74926;SDS011;63488;48.092;-1.640;2023-08-24T13:31:39;4.32;;;2.90;;
74926;SDS011;63488;48.092;-1.640;2023-08-24T13:34:05;5.07;;;3.22;;
74926;SDS011;63488;48.092;-1.640;2023-08-24T13:36:32;3.25;;;2.63;;
74926;SDS011;63488;48.092;-1.640;2023-08-24T13:38:57;10.52;;;3.55;;
74926;SDS011;63488;48.092;-1.640;2023-08-24T13:41:23;7.57;;;2.60;;
74926;SDS011;63488;48.092;-1.640;2023-08-24T13:43:48;4.18;;;2.70;;
74926;SDS011;63488;48.092;-1.640;2023-08-24T13:46:13;5.82;;;2.80;;
74926;SDS011;63488;48.092;-1.640;2023-08-24T13:48:39;4.50;;;2.38;;
74926;SDS011;63488;48.092;-1.640;2023-08-24T13:51:04;5.97;;;2.67;;
74926;SDS011;63488;48.092;-1.640;2023-08-24T13:53:30;4.80;;;2.45;;
74926;SDS011;63488;48.092;-1.640;2023-08-24T13:55:55;4.15;;;2.20;;
74926;SDS011;63488;48.092;-1.640;2023-08-24T13:58:21;4.70;;;2.60;;
74926;SDS011;63488;48.092;-1.640;2023-08-24T14:00:46;6.97;;;2.70;;
74926;SDS011;63488;48.092;-1.640;2023-08-24T14:03:11;4.82;;;2.63;;
74926;SDS011;63488;48.092;-1.640;2023-08-24T14:05:40;4.13;;;2.47;;
74926;SDS011;63488;48.092;-1.640;2023-08-24T14:08:05;7.03;;;2.90;;
74926;SDS011;63488;48.092;-1.640;2023-08-24T14:10:31;6.00;;;3.00;;
74926;SDS011;63488;48.092;-1.640;2023-08-24T14:12:57;9.63;;;2.92;;
74926;SDS011;63488;48.092;-1.640;2023-08-24T14:15:23;4.60;;;2.72;;
74926;SDS011;63488;48.092;-1.640;2023-08-24T14:17:48;5.53;;;2.90;;
74926;SDS011;63488;48.092;-1.640;2023-08-24T14:20:15;6.63;;;2.92;;
74926;SDS011;63488;48.092;-1.640;2023-08-24T14:22:41;5.30;;;2.85;;
74926;SDS011;63488;48.092;-1.640;2023-08-24T14:25:06;4.20;;;2.78;;
74926;SDS011;63488;48.092;-1.640;2023-08-24T14:27:32;5.00;;;3.10;;
74926;SDS011;63488;48.092;-1.640;2023-08-24T14:29:57;5.50;;;2.67;;
74926;SDS011;63488;48.092;-1.640;2023-08-24T14:32:23;5.25;;;2.97;;
74926;SDS011;63488;48.092;-1.640;2023-08-24T14:34:48;7.40;;;3.28;;
74926;SDS011;63488;48.092;-1.640;2023-08-24T14:37:14;4.75;;;2.83;;
74926;SDS011;63488;48.092;-1.640;2023-08-24T14:39:39;4.85;;;3.03;;
74926;SDS011;63488;48.092;-1.640;2023-08-24T14:42:05;9.00;;;3.05;;